Time;durP1;ratioP1;P1;durP2;ratioP2;P2;SDS_P1;SDS_P2;PMS_P1;PMS_P2;Temp;Humidity;BMP_temperature;BMP_pressure;BME280_temperature;BME280_humidity;BME280_pressure;Samples;Min_cycle;Max_cycle;Signal;HPM_P1;HPM_P2
2023/04/28 00:01:11;;;;;;;4.20;3.00;;;;;;;11.03;44.76;99774.00;5050374;28;20056;-80
2023/04/28 00:03:37;;;;;;;5.97;2.88;;;;;;;11.03;44.89;99768.72;5050351;28;20057;-81
2023/04/28 00:06:04;;;;;;;4.85;2.33;;;;;;;11.02;44.74;99759.97;5049906;28;20064;-80
2023/04/28 00:08:31;;;;;;;6.30;3.05;;;;;;;11.00;44.75;99756.59;5049836;28;20053;-81
2023/04/28 00:10:59;;;;;;;4.28;3.03;;;;;;;11.00;44.86;99755.72;5049926;28;20053;-80
2023/04/28 00:13:25;;;;;;;4.55;2.60;;;;;;;10.97;44.79;99759.38;5050265;28;20132;-80
2023/04/28 00:15:52;;;;;;;5.07;2.72;;;;;;;10.96;45.04;99755.06;5049868;28;20049;-81
2023/04/28 00:18:20;;;;;;;3.92;2.70;;;;;;;10.92;45.05;99743.84;5049726;28;20053;-80
2023/04/28 00:20:46;;;;;;;5.55;3.28;;;;;;;10.92;45.03;99743.03;5049895;28;20049;-80
2023/04/28 00:23:13;;;;;;;4.97;2.80;;;;;;;10.90;44.92;99737.84;5050011;28;20049;-80
2023/04/28 00:25:39;;;;;;;7.13;2.80;;;;;;;10.89;44.95;99738.78;5049779;28;20061;-80
2023/04/28 00:28:06;;;;;;;4.45;2.90;;;;;;;10.88;44.98;99728.34;5049883;28;20099;-80
2023/04/28 00:30:32;;;;;;;4.07;2.90;;;;;;;10.86;45.01;99724.94;5049818;28;20106;-81
2023/04/28 00:32:59;;;;;;;6.30;3.60;;;;;;;10.84;44.94;99714.47;5049998;28;20086;-81
2023/04/28 00:35:25;;;;;;;5.50;3.15;;;;;;;10.82;45.16;99713.75;5050662;28;20569;-80
2023/04/28 00:37:52;;;;;;;4.35;2.88;;;;;;;10.80;45.06;99712.97;5052060;28;20409;-81
2023/04/28 00:40:18;;;;;;;6.65;3.30;;;;;;;10.78;45.13;99707.81;5053718;28;20061;-80
2023/04/28 00:42:45;;;;;;;10.00;3.40;;;;;;;10.74;45.17;99698.41;5053668;28;20099;-80
2023/04/28 00:45:11;;;;;;;4.65;2.90;;;;;;;10.72;45.32;99702.91;5053339;28;20132;-81
2023/04/28 00:47:38;;;;;;;6.85;3.35;;;;;;;10.68;45.47;99696.97;5053181;28;20049;-80
2023/04/28 00:50:05;;;;;;;7.03;3.28;;;;;;;10.68;45.25;99698.75;5051918;28;20053;-80
2023/04/28 00:52:31;;;;;;;4.65;3.08;;;;;;;10.66;45.41;99692.72;5053544;28;20057;-81
2023/04/28 00:54:58;;;;;;;5.05;3.05;;;;;;;10.65;45.53;99685.78;5053122;28;20040;-80
2023/04/28 00:57:25;;;;;;;6.07;3.17;;;;;;;10.63;45.44;99688.50;5053072;28;20063;-80
2023/04/28 00:59:52;;;;;;;4.40;3.35;;;;;;;10.63;45.54;99691.13;5052322;28;20049;-80
2023/04/28 01:02:19;;;;;;;5.50;3.10;;;;;;;10.61;45.71;99685.09;5053218;28;20045;-80
2023/04/28 01:04:46;;;;;;;10.55;3.45;;;;;;;10.61;45.75;99676.38;5053129;28;20048;-81
2023/04/28 01:07:13;;;;;;;4.13;3.08;;;;;;;10.57;45.62;99670.41;5051156;28;20056;-80
2023/04/28 01:09:39;;;;;;;7.75;3.83;;;;;;;10.56;45.54;99671.34;5053105;28;20045;-80
2023/04/28 01:12:07;;;;;;;7.05;3.15;;;;;;;10.54;45.70;99673.22;5051648;28;20555;-80
2023/04/28 01:14:33;;;;;;;5.55;3.13;;;;;;;10.52;45.80;99664.56;5052923;28;20497;-81
2023/04/28 01:17:00;;;;;;;4.72;2.90;;;;;;;10.49;45.78;99659.47;5052535;28;20053;-80
2023/04/28 01:19:28;;;;;;;7.97;3.17;;;;;;;10.46;45.89;99662.31;5053036;28;20049;-80
2023/04/28 01:21:55;;;;;;;4.53;3.35;;;;;;;10.43;46.03;99655.38;5053014;28;20061;-80
2023/04/28 01:24:21;;;;;;;4.45;2.70;;;;;;;10.41;46.12;99657.28;5052943;28;20049;-80
2023/04/28 01:26:48;;;;;;;4.82;3.35;;;;;;;10.38;46.08;99657.44;5052306;28;20060;-80
2023/04/28 01:29:14;;;;;;;6.20;3.40;;;;;;;10.36;46.07;99662.78;5051444;28;20049;-81
2023/04/28 01:31:41;;;;;;;6.28;3.03;;;;;;;10.33;46.13;99655.09;5052526;28;20417;-80
2023/04/28 01:34:07;;;;;;;5.35;3.03;;;;;;;10.33;46.42;99643.72;5052640;28;20051;-80
2023/04/28 01:36:34;;;;;;;5.38;3.47;;;;;;;10.30;46.07;99648.22;5052060;28;20048;-80
2023/04/28 01:39:03;;;;;;;6.50;3.20;;;;;;;10.30;46.42;99640.34;5051444;28;20131;-80
2023/04/28 01:41:30;;;;;;;5.43;3.17;;;;;;;10.28;46.37;99630.84;5052572;28;20452;-80
2023/04/28 01:43:56;;;;;;;6.28;3.50;;;;;;;10.27;46.23;99634.38;5052439;28;20049;-80
2023/04/28 01:46:23;;;;;;;7.22;3.22;;;;;;;10.25;46.48;99623.94;5052125;28;20061;-80
2023/04/28 01:51:26;;;;;;;6.40;3.25;;;;;;;10.22;46.47;99629.41;5031226;28;20057;-78
2023/04/28 01:53:52;;;;;;;5.70;3.40;;;;;;;10.22;46.61;99618.03;5033344;28;20140;-79
2023/04/28 01:56:19;;;;;;;5.35;3.33;;;;;;;10.21;46.53;99616.34;5033004;28;20050;-82
2023/04/28 01:58:45;;;;;;;6.97;3.30;;;;;;;10.21;46.58;99629.50;5033057;28;20049;-83
2023/04/28 02:01:11;;;;;;;12.40;3.67;;;;;;;10.20;46.64;99612.84;5033319;28;20057;-79
2023/04/28 02:03:38;;;;;;;5.13;3.25;;;;;;;10.19;46.75;99605.03;5033220;28;20053;-77
2023/04/28 02:06:05;;;;;;;4.60;3.08;;;;;;;10.19;46.71;99599.78;5033115;28;20045;-78
2023/04/28 02:08:31;;;;;;;4.78;3.40;;;;;;;10.19;46.52;99597.16;5032815;28;20049;-81
2023/04/28 02:10:57;;;;;;;5.95;3.13;;;;;;;10.15;46.43;99592.09;5031980;28;20080;-82
2023/04/28 02:13:24;;;;;;;5.18;3.17;;;;;;;10.14;46.89;99587.75;5033299;28;20057;-79
2023/04/28 02:15:50;;;;;;;6.28;3.85;;;;;;;10.13;46.76;99593.94;5032976;28;20127;-78
2023/04/28 02:18:17;;;;;;;5.47;3.38;;;;;;;10.13;46.74;99587.84;5031167;28;20494;-80
2023/04/28 02:20:43;;;;;;;7.03;3.40;;;;;;;10.12;46.79;99580.88;5033141;28;20449;-78
2023/04/28 02:23:09;;;;;;;6.00;3.50;;;;;;;10.12;46.84;99583.50;5033373;28;20449;-78
2023/04/28 02:25:36;;;;;;;5.60;3.80;;;;;;;10.11;46.67;99580.06;5032589;28;20091;-78
2023/04/28 02:28:02;;;;;;;6.80;3.58;;;;;;;10.10;46.65;99582.78;5031476;28;20075;-79
2023/04/28 02:30:29;;;;;;;5.90;3.30;;;;;;;10.08;46.90;99574.09;5032893;28;20107;-78
2023/04/28 02:32:55;;;;;;;5.20;3.35;;;;;;;10.06;46.66;99587.38;5032639;28;20046;-78
2023/04/28 02:35:22;;;;;;;3.85;3.03;;;;;;;10.06;46.58;99583.88;5032601;28;20045;-77
2023/04/28 02:37:48;;;;;;;4.57;3.58;;;;;;;10.02;46.80;99581.41;5031113;28;20057;-77
2023/04/28 02:40:15;;;;;;;7.72;3.50;;;;;;;10.01;46.80;99571.84;5032575;28;20115;-77
2023/04/28 02:42:41;;;;;;;10.38;3.50;;;;;;;10.00;47.04;99577.19;5032340;28;20053;-83
2023/04/28 02:45:08;;;;;;;7.78;3.35;;;;;;;9.98;46.93;99573.81;5032312;28;20515;-81
2023/04/28 02:47:34;;;;;;;8.93;3.72;;;;;;;9.98;47.03;99572.00;5031147;28;20552;-77
2023/04/28 02:50:01;;;;;;;6.60;3.40;;;;;;;9.98;46.67;99574.63;5032196;28;20060;-77
2023/04/28 02:52:27;;;;;;;7.85;3.67;;;;;;;9.99;47.20;99573.69;5032294;28;20670;-78
2023/04/28 02:54:56;;;;;;;8.18;3.38;;;;;;;10.00;46.89;99564.03;5030933;28;20046;-80
2023/04/28 02:57:23;;;;;;;4.97;3.33;;;;;;;10.02;47.01;99568.28;5031910;28;20461;-78
2023/04/28 02:59:49;;;;;;;8.70;3.95;;;;;;;10.04;46.94;99566.41;5031765;28;20422;-78
2023/04/28 03:02:16;;;;;;;5.38;3.38;;;;;;;10.07;47.05;99565.38;5031263;28;20061;-77
2023/04/28 03:04:42;;;;;;;6.03;3.72;;;;;;;10.10;47.01;99553.84;5032086;28;20077;-79
2023/04/28 03:07:09;;;;;;;6.03;3.08;;;;;;;10.11;47.09;99552.91;5030432;28;20494;-80
2023/04/28 03:09:35;;;;;;;5.20;3.30;;;;;;;10.13;47.10;99553.66;5032100;28;20045;-78
2023/04/28 03:12:02;;;;;;;8.80;3.17;;;;;;;10.16;46.95;99548.22;5032000;28;20081;-77
2023/04/28 03:14:28;;;;;;;4.85;3.25;;;;;;;10.19;47.18;99544.53;5032048;28;20057;-77
2023/04/28 03:16:56;;;;;;;7.20;3.38;;;;;;;10.23;47.00;99541.66;5031199;28;20077;-82
2023/04/28 03:19:23;;;;;;;5.88;3.25;;;;;;;10.25;47.21;99541.56;5031900;28;20583;-77
2023/04/28 03:21:49;;;;;;;4.82;3.67;;;;;;;10.28;46.98;99541.41;5030860;28;20409;-80
2023/04/28 03:24:16;;;;;;;6.38;3.38;;;;;;;10.29;47.02;99532.56;5031888;28;20049;-79
2023/04/28 03:26:42;;;;;;;9.02;3.38;;;;;;;10.33;46.98;99533.22;5031122;28;20498;-79
2023/04/28 03:29:09;;;;;;;4.88;3.15;;;;;;;10.35;46.97;99531.34;5031660;28;20395;-77
2023/04/28 03:31:35;;;;;;;6.80;3.75;;;;;;;10.37;47.00;99530.31;5031234;28;20076;-81
2023/04/28 03:34:03;;;;;;;6.20;3.40;;;;;;;10.39;47.19;99523.16;5030684;28;20049;-81
2023/04/28 03:36:29;;;;;;;10.18;3.50;;;;;;;10.41;47.07;99518.69;5030662;28;20053;-78
2023/04/28 03:38:55;;;;;;;5.30;3.53;;;;;;;10.42;47.16;99511.59;5030295;28;20134;-80
2023/04/28 03:41:22;;;;;;;6.80;3.55;;;;;;;10.45;47.17;99505.34;5030841;28;20083;-82
2023/04/28 03:43:48;;;;;;;6.13;3.22;;;;;;;10.45;46.90;99502.72;5030585;28;20057;-81
2023/04/28 03:46:14;;;;;;;7.60;3.78;;;;;;;10.46;47.03;99500.00;5030482;28;20057;-82
2023/04/28 03:48:41;;;;;;;6.43;3.30;;;;;;;10.47;47.24;99493.78;5030440;28;20049;-78
2023/04/28 03:51:07;;;;;;;6.13;3.85;;;;;;;10.50;47.12;99498.03;5030511;28;20041;-77
2023/04/28 03:53:34;;;;;;;6.57;3.80;;;;;;;10.51;47.16;99490.03;5031495;28;20042;-77
2023/04/28 03:56:00;;;;;;;6.70;3.83;;;;;;;10.53;47.15;99492.56;5030423;28;20052;-79
2023/04/28 03:58:27;;;;;;;4.10;3.13;;;;;;;10.55;47.22;99490.69;5030813;28;20045;-79
2023/04/28 04:00:53;;;;;;;6.93;3.88;;;;;;;10.56;47.23;99481.84;5030956;28;20061;-79
2023/04/28 04:03:21;;;;;;;6.22;3.67;;;;;;;10.59;47.23;99476.41;5030875;28;20049;-78
2023/04/28 04:05:48;;;;;;;5.78;3.90;;;;;;;10.61;47.25;99478.97;5030247;28;20052;-79
2023/04/28 04:08:15;;;;;;;6.13;3.53;;;;;;;10.63;47.12;99482.31;5030271;28;20052;-80
2023/04/28 04:10:41;;;;;;;4.78;3.50;;;;;;;10.64;47.21;99484.88;5031873;28;20498;-82
2023/04/28 04:13:08;;;;;;;6.60;3.65;;;;;;;10.68;47.40;99474.97;5034352;28;20107;-85
2023/04/28 04:15:34;;;;;;;9.18;4.18;;;;;;;10.70;47.40;99473.13;5034370;28;20053;-80
2023/04/28 04:18:01;;;;;;;6.53;4.28;;;;;;;10.74;47.42;99473.75;5034976;28;20060;-79
2023/04/28 04:20:27;;;;;;;9.20;4.53;;;;;;;10.77;47.64;99473.59;5035100;28;20060;-80
2023/04/28 04:22:54;;;;;;;7.28;4.15;;;;;;;10.80;47.60;99478.63;5034841;28;20049;-80
2023/04/28 04:25:20;;;;;;;7.70;3.92;;;;;;;10.81;47.76;99468.00;5034179;28;20080;-80
2023/04/28 04:27:48;;;;;;;6.43;4.32;;;;;;;10.85;47.69;99459.94;5034347;28;20434;-79
2023/04/28 04:30:15;;;;;;;9.85;4.35;;;;;;;10.88;47.79;99465.00;5034253;28;20054;-79
2023/04/28 04:32:41;;;;;;;8.85;3.83;;;;;;;10.89;47.81;99458.78;5034515;28;20057;-80
2023/04/28 04:35:08;;;;;;;12.88;3.92;;;;;;;10.93;47.86;99452.38;5034083;28;20053;-79
2023/04/28 04:37:34;;;;;;;8.65;3.85;;;;;;;10.94;47.74;99449.66;5034281;28;20058;-79
2023/04/28 04:40:02;;;;;;;6.15;3.95;;;;;;;10.98;47.57;99446.84;5034101;28;20125;-81
2023/04/28 04:42:28;;;;;;;7.50;4.20;;;;;;;11.00;47.75;99451.06;5034596;28;20385;-79
2023/04/28 04:44:55;;;;;;;7.03;4.40;;;;;;;11.04;47.92;99452.56;5033896;28;20572;-79
2023/04/28 04:47:21;;;;;;;7.50;4.50;;;;;;;11.07;47.92;99449.72;5032798;28;20049;-78
2023/04/28 04:49:51;;;;;;;10.35;4.38;;;;;;;11.12;47.90;99438.03;5032864;28;20111;-81
2023/04/28 04:52:17;;;;;;;6.60;4.00;;;;;;;11.15;47.93;99438.69;5033793;28;20135;-78
2023/04/28 04:54:45;;;;;;;5.63;3.75;;;;;;;11.20;47.69;99448.94;5033054;28;20064;-81
2023/04/28 04:57:11;;;;;;;6.20;3.95;;;;;;;11.23;47.79;99446.09;5033508;28;20056;-78
2023/04/28 04:59:38;;;;;;;8.77;4.32;;;;;;;11.27;47.85;99452.00;5034145;28;20115;-83
2023/04/28 05:02:04;;;;;;;7.47;4.22;;;;;;;11.30;47.85;99451.81;5033876;28;20049;-80
2023/04/28 05:04:31;;;;;;;8.32;4.75;;;;;;;11.33;47.93;99447.19;5033695;28;20128;-80
2023/04/28 05:06:58;;;;;;;7.68;4.38;;;;;;;11.38;47.95;99457.44;5033017;28;20045;-79
2023/04/28 05:09:24;;;;;;;7.32;4.47;;;;;;;11.43;48.01;99449.22;5034019;28;20104;-78
2023/04/28 05:11:50;;;;;;;11.57;4.15;;;;;;;11.46;48.08;99452.50;5033777;28;20045;-79
2023/04/28 05:14:17;;;;;;;7.72;4.80;;;;;;;11.52;48.07;99447.78;5032662;28;20111;-81
2023/04/28 05:16:44;;;;;;;9.15;4.47;;;;;;;11.55;47.97;99456.31;5033019;28;20080;-79
2023/04/28 05:19:10;;;;;;;6.70;4.72;;;;;;;11.60;48.08;99451.56;5032526;28;20107;-79
2023/04/28 05:21:37;;;;;;;9.05;5.00;;;;;;;11.63;48.15;99450.56;5033233;28;20057;-80
2023/04/28 05:24:03;;;;;;;7.22;4.57;;;;;;;11.66;48.28;99452.97;5032611;28;20104;-78
2023/04/28 05:26:30;;;;;;;7.88;4.18;;;;;;;11.70;48.32;99449.19;5033293;28;20053;-79
2023/04/28 05:28:56;;;;;;;8.77;4.95;;;;;;;11.73;48.29;99440.22;5033075;28;20096;-78
2023/04/28 05:31:22;;;;;;;8.80;4.90;;;;;;;11.75;48.39;99426.94;5033142;28;20041;-79
2023/04/28 05:33:49;;;;;;;9.15;4.47;;;;;;;11.78;48.07;99434.63;5033654;28;20042;-79
2023/04/28 05:36:15;;;;;;;6.25;4.80;;;;;;;11.78;48.21;99432.00;5033192;28;20176;-78
2023/04/28 05:38:42;;;;;;;10.20;4.70;;;;;;;11.78;48.35;99427.56;5033074;28;20056;-81
2023/04/28 05:41:09;;;;;;;8.15;4.53;;;;;;;11.79;48.57;99434.53;5033511;28;20049;-78
2023/04/28 05:43:36;;;;;;;7.07;4.82;;;;;;;11.82;48.37;99428.22;5033335;28;20453;-78
2023/04/28 05:46:02;;;;;;;6.63;4.40;;;;;;;11.84;48.32;99426.31;5032706;28;20725;-79
2023/04/28 05:48:31;;;;;;;6.78;4.97;;;;;;;11.86;48.18;99429.69;5031871;28;20091;-78
2023/04/28 05:50:57;;;;;;;8.00;4.90;;;;;;;11.89;48.35;99428.63;5033197;28;20067;-78
2023/04/28 05:53:24;;;;;;;9.35;4.72;;;;;;;11.92;48.37;99431.09;5033340;28;20099;-78
2023/04/28 05:55:51;;;;;;;7.90;4.78;;;;;;;11.94;48.37;99427.38;5032799;28;20061;-79
2023/04/28 05:58:17;;;;;;;8.40;4.88;;;;;;;11.98;48.38;99428.00;5032457;28;20088;-80
2023/04/28 06:00:44;;;;;;;9.75;5.40;;;;;;;12.02;48.54;99423.34;5033044;28;20049;-80
2023/04/28 06:03:13;;;;;;;9.80;5.32;;;;;;;12.06;48.59;99428.38;5032778;28;20053;-79
2023/04/28 06:05:40;;;;;;;9.43;4.85;;;;;;;12.12;48.81;99424.47;5032504;28;20435;-80
2023/04/28 06:08:07;;;;;;;7.25;4.82;;;;;;;12.18;48.66;99425.84;5032058;28;20206;-79
2023/04/28 06:10:33;;;;;;;9.50;5.65;;;;;;;12.23;48.51;99421.91;5032816;28;20049;-79
2023/04/28 06:13:01;;;;;;;7.53;4.57;;;;;;;12.30;48.46;99424.13;5032609;28;20053;-83
2023/04/28 06:15:27;;;;;;;7.60;5.10;;;;;;;12.35;48.42;99422.00;5032714;28;20049;-79
2023/04/28 06:17:54;;;;;;;10.93;5.63;;;;;;;12.37;48.44;99428.88;5032002;28;20045;-79
2023/04/28 06:20:20;;;;;;;8.82;4.88;;;;;;;12.43;48.46;99429.38;5032403;28;20485;-80
2023/04/28 06:22:47;;;;;;;8.57;5.05;;;;;;;12.46;48.38;99421.25;5032709;28;20493;-78
2023/04/28 06:25:13;;;;;;;8.70;5.28;;;;;;;12.48;48.56;99425.47;5032322;28;20053;-80
2023/04/28 06:27:40;;;;;;;9.98;5.18;;;;;;;12.51;48.70;99432.34;5031928;28;20049;-81
2023/04/28 06:30:07;;;;;;;9.70;5.40;;;;;;;12.52;48.89;99428.72;5032470;28;20076;-78
2023/04/28 06:32:33;;;;;;;9.13;5.05;;;;;;;12.54;48.82;99429.50;5031330;28;20195;-78
2023/04/28 06:35:00;;;;;;;8.45;5.15;;;;;;;12.55;48.58;99420.59;5031793;28;20053;-78
2023/04/28 06:37:26;;;;;;;8.02;4.95;;;;;;;12.55;48.76;99420.59;5031898;28;20046;-79
2023/04/28 06:39:53;;;;;;;7.93;5.10;;;;;;;12.55;48.71;99420.59;5031940;28;20552;-81
2023/04/28 06:42:19;;;;;;;8.52;5.00;;;;;;;12.55;48.88;99419.75;5032171;28;20057;-77
2023/04/28 06:44:46;;;;;;;10.35;5.20;;;;;;;12.55;48.83;99419.75;5031923;28;20049;-79
2023/04/28 06:47:12;;;;;;;7.40;5.13;;;;;;;12.54;48.84;99421.56;5031549;28;20049;-79
2023/04/28 06:49:38;;;;;;;9.00;5.75;;;;;;;12.55;49.31;99417.97;5031953;28;20041;-78
2023/04/28 06:52:06;;;;;;;10.15;5.45;;;;;;;12.56;49.29;99421.47;5031834;28;20096;-79
2023/04/28 06:54:33;;;;;;;11.13;5.15;;;;;;;12.58;49.56;99408.97;5031909;28;20493;-82
2023/04/28 06:56:59;;;;;;;8.25;5.30;;;;;;;12.61;49.64;99408.78;5031167;28;20049;-79
2023/04/28 06:59:26;;;;;;;10.93;5.50;;;;;;;12.66;49.81;99405.78;5032413;28;20049;-83
2023/04/28 07:01:52;;;;;;;10.90;5.63;;;;;;;12.71;49.95;99396.59;5032137;28;20111;-82
2023/04/28 07:04:19;;;;;;;8.57;5.53;;;;;;;12.77;49.81;99395.31;5031864;28;20420;-80
2023/04/28 07:06:46;;;;;;;9.57;6.22;;;;;;;12.83;49.91;99392.25;5031260;28;20053;-80
2023/04/28 07:09:12;;;;;;;8.20;5.85;;;;;;;12.90;49.63;99379.44;5031679;28;20088;-80
2023/04/28 07:11:38;;;;;;;8.07;5.80;;;;;;;12.95;49.80;99373.78;5031954;28;20045;-80
2023/04/28 07:14:07;;;;;;;9.73;6.05;;;;;;;13.01;49.86;99370.72;5031514;28;20072;-80
2023/04/28 07:16:33;;;;;;;7.97;5.40;;;;;;;13.07;49.94;99367.59;5030787;28;20053;-85
2023/04/28 07:18:59;;;;;;;5.72;5.15;;;;;;;13.13;50.17;99361.84;5031930;28;20140;-79
2023/04/28 07:21:27;;;;;;;9.05;5.40;;;;;;;13.20;50.25;99372.81;5031429;28;20489;-78
2023/04/28 07:23:56;;;;;;;9.43;5.43;;;;;;;13.27;50.31;99362.66;5031817;28;20661;-80
2023/04/28 07:26:23;;;;;;;10.82;6.35;;;;;;;13.36;50.47;99358.47;5029760;28;20052;-79
2023/04/28 07:28:49;;;;;;;10.18;6.15;;;;;;;13.42;50.47;99358.84;5030944;28;20045;-80
2023/04/28 07:31:15;;;;;;;8.35;5.53;;;;;;;13.51;50.56;99362.63;5030448;28;20049;-79
2023/04/28 07:33:42;;;;;;;12.80;6.13;;;;;;;13.58;50.25;99364.81;5030244;28;20057;-82
2023/04/28 07:36:08;;;;;;;9.90;6.15;;;;;;;13.65;50.22;99372.13;5031028;28;20057;-79
2023/04/28 07:38:35;;;;;;;9.55;5.88;;;;;;;13.71;50.24;99365.53;5030770;28;20091;-78
2023/04/28 07:41:02;;;;;;;9.50;5.78;;;;;;;13.78;50.03;99365.91;5031198;28;20057;-78
2023/04/28 07:43:30;;;;;;;11.35;6.10;;;;;;;13.81;50.11;99365.69;5030996;28;20095;-83
2023/04/28 07:45:57;;;;;;;9.02;6.07;;;;;;;13.83;50.01;99371.69;5030987;28;20536;-80
2023/04/28 07:50:54;;;;;;;9.15;5.70;;;;;;;13.86;49.87;99378.56;5009295;28;20446;-79
2023/04/28 07:53:21;;;;;;;9.20;6.18;;;;;;;13.86;49.82;99381.22;5009548;28;20077;-79
2023/04/28 07:55:47;;;;;;;10.25;5.65;;;;;;;13.85;49.70;99376.88;5010416;28;20522;-80
2023/04/28 07:58:14;;;;;;;10.38;6.43;;;;;;;13.84;49.92;99386.63;5010284;28;20047;-79
2023/04/28 08:00:40;;;;;;;11.10;5.95;;;;;;;13.85;50.08;99387.44;5010788;28;20053;-80
2023/04/28 08:03:07;;;;;;;8.85;6.03;;;;;;;13.84;50.17;99381.34;5009598;28;20046;-80
2023/04/28 08:05:34;;;;;;;8.05;6.05;;;;;;;13.86;50.65;99384.69;5010383;28;20050;-80
2023/04/28 08:08:00;;;;;;;11.77;6.07;;;;;;;13.87;50.70;99386.38;5010349;28;20062;-79
2023/04/28 08:10:27;;;;;;;11.43;6.45;;;;;;;13.89;50.91;99384.47;5010821;28;20050;-80
2023/04/28 08:12:54;;;;;;;9.73;6.50;;;;;;;13.91;50.76;99381.69;5010479;28;20053;-79
2023/04/28 08:15:20;;;;;;;7.82;6.13;;;;;;;13.92;50.90;99389.53;5010461;28;20056;-79
2023/04/28 08:17:47;;;;;;;8.93;6.38;;;;;;;13.94;51.29;99386.72;5010274;28;20128;-79
2023/04/28 08:20:14;;;;;;;13.23;6.30;;;;;;;13.95;51.35;99393.75;5010711;28;20042;-79
2023/04/28 08:22:41;;;;;;;7.20;5.93;;;;;;;13.97;51.55;99390.97;5010620;28;20053;-79
2023/04/28 08:25:07;;;;;;;7.85;6.20;;;;;;;13.98;51.52;99395.31;5010158;28;20093;-79
2023/04/28 08:27:36;;;;;;;10.30;6.55;;;;;;;13.96;51.50;99392.78;5010117;28;20054;-80
2023/04/28 08:30:04;;;;;;;9.80;6.88;;;;;;;13.96;51.63;99399.84;5010419;28;20513;-80
2023/04/28 08:32:30;;;;;;;9.15;6.53;;;;;;;13.96;51.55;99394.56;5025641;28;20081;-79
2023/04/28 08:34:57;;;;;;;15.50;7.10;;;;;;;13.94;51.71;99387.59;5010203;28;20057;-80
2023/04/28 08:37:23;;;;;;;8.60;6.50;;;;;;;13.93;52.07;99390.34;5010104;28;20054;-79
2023/04/28 08:39:51;;;;;;;9.55;6.65;;;;;;;13.92;52.17;99386.88;5010261;28;20050;-80
2023/04/28 08:42:19;;;;;;;11.52;7.05;;;;;;;13.91;52.23;99382.53;5010532;28;20054;-79
2023/04/28 08:44:46;;;;;;;14.85;7.45;;;;;;;13.89;52.61;99384.47;5010179;28;20054;-80
2023/04/28 08:47:13;;;;;;;11.55;7.00;;;;;;;13.90;52.70;99377.34;5009987;28;20056;-79
2023/04/28 08:49:40;;;;;;;9.98;7.05;;;;;;;13.90;52.90;99375.56;5010067;28;20488;-79
2023/04/28 08:52:11;;;;;;;12.13;7.53;;;;;;;13.92;53.56;99381.59;5010167;28;20038;-79
2023/04/28 08:54:40;;;;;;;11.15;7.28;;;;;;;13.98;53.50;99379.44;5010104;28;20061;-79
2023/04/28 08:57:10;;;;;;;11.57;7.22;;;;;;;14.02;53.55;99372.94;5011655;28;20734;-79
2023/04/28 08:59:39;;;;;;;10.30;6.75;;;;;;;14.07;53.50;99368.97;5012651;28;20089;-80
2023/04/28 09:02:07;;;;;;;11.38;7.22;;;;;;;14.12;53.46;99373.03;5013811;28;20136;-79
2023/04/28 09:04:34;;;;;;;9.45;6.93;;;;;;;14.17;53.40;99374.38;5013595;28;20149;-79
2023/04/28 09:07:01;;;;;;;10.75;7.05;;;;;;;14.19;53.30;99371.59;5012751;28;20049;-79
2023/04/28 09:09:29;;;;;;;10.18;7.00;;;;;;;14.24;53.59;99368.59;5013707;28;20046;-79
2023/04/28 09:12:02;;;;;;;10.88;7.68;;;;;;;14.28;53.87;99370.03;5013589;28;20057;-79
2023/04/28 09:14:31;;;;;;;13.73;7.80;;;;;;;14.32;54.24;99360.91;5013576;28;20053;-79
2023/04/28 09:16:58;;;;;;;10.32;7.30;;;;;;;14.37;54.20;99353.44;5011423;28;20454;-79
2023/04/28 09:19:35;;;;;;;10.30;7.72;;;;;;;14.39;54.48;99348.00;5013447;28;20092;-79
2023/04/28 09:22:04;;;;;;;9.65;7.28;;;;;;;14.44;54.08;99337.88;5013426;28;20112;-79
2023/04/28 09:24:51;;;;;;;8.70;6.57;;;;;;;14.48;53.92;99341.97;5013307;28;20046;-79
2023/04/28 09:27:26;;;;;;;12.05;7.75;;;;;;;14.49;54.52;99342.81;5012899;28;20062;-80
2023/04/28 09:29:56;;;;;;;12.43;7.80;;;;;;;14.55;54.45;99348.44;5013273;28;20050;-79
2023/04/28 09:32:22;;;;;;;13.68;7.72;;;;;;;14.62;54.97;99346.16;5028435;28;20069;-80
2023/04/28 09:34:52;;;;;;;13.63;8.13;;;;;;;14.69;55.50;99352.63;5013062;28;20141;-79
2023/04/28 09:37:21;;;;;;;10.05;7.55;;;;;;;14.81;55.36;99347.34;5027983;28;20137;-80
2023/04/28 09:39:53;;;;;;;12.25;7.43;;;;;;;14.93;55.13;99351.66;5013194;28;20487;-79
2023/04/28 09:42:36;;;;;;;10.33;8.10;;;;;;;15.05;55.27;99349.78;5028141;28;20541;-79
2023/04/28 09:45:10;;;;;;;10.52;7.60;;;;;;;15.26;55.60;99340.19;5012481;28;20502;-79
2023/04/28 09:47:39;;;;;;;13.80;7.72;;;;;;;15.41;55.34;99341.56;5012660;28;20050;-80
2023/04/28 09:50:11;;;;;;;12.93;8.07;;;;;;;15.55;55.38;99342.19;5012684;28;20062;-80
2023/04/28 09:52:37;;;;;;;9.50;7.40;;;;;;;15.67;54.93;99338.50;5012672;28;20053;-79
2023/04/28 09:55:07;;;;;;;15.65;8.55;;;;;;;15.78;54.82;99340.25;5012315;28;20127;-79
2023/04/28 09:57:35;;;;;;;11.93;8.25;;;;;;;15.89;55.01;99336.66;5011324;28;20045;-79
2023/04/28 10:00:05;;;;;;;13.20;8.25;;;;;;;16.01;54.84;99335.59;5012614;28;20565;-78
2023/04/28 10:02:36;;;;;;;12.35;7.97;;;;;;;16.13;54.89;99327.56;5012509;28;20450;-80
2023/04/28 10:05:08;;;;;;;14.18;8.20;;;;;;;16.31;55.84;99332.22;5012385;28;20052;-79
2023/04/28 10:07:36;;;;;;;13.32;8.63;;;;;;;16.50;55.99;99336.75;5012109;28;20471;-79
2023/04/28 10:10:04;;;;;;;11.70;8.32;;;;;;;16.71;55.79;99333.16;5012551;28;20042;-78
2023/04/28 10:12:31;;;;;;;14.73;8.40;;;;;;;16.91;54.88;99329.53;5012353;28;20057;-77
2023/04/28 10:14:59;;;;;;;12.73;9.00;;;;;;;17.08;54.67;99326.34;5012082;28;20052;-77
2023/04/28 10:17:28;;;;;;;10.73;8.52;;;;;;;17.21;54.05;99326.91;5011905;28;20132;-78
2023/04/28 10:19:56;;;;;;;10.55;7.72;;;;;;;17.29;53.44;99319.06;5012108;28;20483;-80
2023/04/28 10:22:52;;;;;;;9.80;8.00;;;;;;;17.30;52.80;99315.41;5012297;28;20058;-78
2023/04/28 10:25:33;;;;;;;10.48;7.75;;;;;;;17.41;53.24;99314.41;5010826;28;20128;-78
2023/04/28 10:28:03;;;;;;;10.50;8.35;;;;;;;17.49;53.58;99311.03;5011756;28;20157;-78
2023/04/28 10:30:30;;;;;;;11.32;8.75;;;;;;;17.58;53.76;99306.69;5012072;28;20133;-78
2023/04/28 10:33:24;;;;;;;13.77;7.82;;;;;;;17.69;52.87;99298.50;5012154;28;20061;-80
2023/04/28 10:35:51;;;;;;;12.70;8.80;;;;;;;17.89;53.23;99298.44;5007598;28;20061;-78
2023/04/28 10:38:22;;;;;;;11.98;8.20;;;;;;;17.99;52.68;99287.75;5011468;28;20490;-77
2023/04/28 10:40:53;;;;;;;9.35;7.13;;;;;;;18.05;51.79;99287.16;5011898;28;20100;-78
2023/04/28 10:43:29;;;;;;;10.85;7.75;;;;;;;18.07;51.56;99295.84;5011963;28;20085;-79
2023/04/28 10:45:59;;;;;;;11.50;7.82;;;;;;;18.13;51.74;99289.09;5011534;28;20049;-78
2023/04/28 10:48:25;;;;;;;14.32;8.65;;;;;;;18.12;51.64;99290.09;5026413;28;20751;-80
2023/04/28 10:51:04;;;;;;;11.88;8.32;;;;;;;18.06;51.11;99282.69;5026717;28;20054;-81
2023/04/28 10:53:57;;;;;;;11.68;8.85;;;;;;;18.05;50.91;99281.81;5011552;28;20052;-80
2023/04/28 10:56:25;;;;;;;13.10;7.75;;;;;;;18.13;51.69;99277.63;4995503;28;20634;-80
2023/04/28 10:58:57;;;;;;;10.73;7.25;;;;;;;18.15;51.47;99275.63;5011281;28;20055;-80
2023/04/28 11:01:24;;;;;;;8.07;7.07;;;;;;;18.20;51.80;99279.53;5011699;28;20041;-80
2023/04/28 11:04:02;;;;;;;13.45;7.75;;;;;;;18.28;51.50;99269.97;5011444;28;20108;-80
2023/04/28 11:06:40;;;;;;;9.75;7.72;;;;;;;18.47;53.15;99277.00;5026254;28;20057;-79
2023/04/28 11:09:13;;;;;;;10.20;7.40;;;;;;;18.80;53.57;99265.81;5011522;28;20116;-80
2023/04/28 11:11:39;;;;;;;11.15;7.72;;;;;;;19.30;56.17;99258.19;5011369;28;20517;-80
2023/04/28 11:14:16;;;;;;;8.65;6.53;;;;;;;19.96;55.09;99261.22;5011146;28;20418;-80
2023/04/28 11:17:11;;;;;;;7.93;6.60;;;;;;;20.74;52.88;99252.25;5010614;28;20140;-77
2023/04/28 11:19:40;;;;;;;8.18;6.43;;;;;;;21.34;51.41;99244.84;5010210;28;20050;-78
2023/04/28 11:22:13;;;;;;;8.60;5.90;;;;;;;21.71;49.62;99231.84;5011198;28;20613;-79
2023/04/28 11:24:40;;;;;;;12.52;6.88;;;;;;;21.96;49.02;99229.09;5011049;28;20060;-78
2023/04/28 11:27:07;;;;;;;10.32;6.72;;;;;;;22.09;48.44;99229.38;5010873;28;20061;-78
2023/04/28 11:29:39;;;;;;;7.85;6.18;;;;;;;22.15;46.81;99225.16;5011117;28;20068;-78
2023/04/28 11:32:08;;;;;;;8.03;6.17;;;;;;;22.22;47.39;99233.31;5011215;28;20081;-78
2023/04/28 11:34:35;;;;;;;8.52;5.88;;;;;;;22.26;47.51;99231.97;5009749;28;20052;-78
2023/04/28 11:37:02;;;;;;;6.95;5.22;;;;;;;22.30;47.82;99227.06;5010240;28;20128;-79
2023/04/28 11:39:31;;;;;;;8.50;6.07;;;;;;;22.35;47.18;99227.38;5011163;28;20104;-78